sensor_id;sensor_type;location;lat;lon;timestamp;temperature;humidity
19567;DHT22;9930;49.240;8.548;2023-09-30T00:00:47;21.00;68.70
19567;DHT22;9930;49.240;8.548;2023-09-30T00:03:21;21.00;68.60
19567;DHT22;9930;49.240;8.548;2023-09-30T00:06:11;21.00;68.60
19567;DHT22;9930;49.240;8.548;2023-09-30T00:08:44;21.00;68.80
19567;DHT22;9930;49.240;8.548;2023-09-30T00:11:15;21.00;68.90
19567;DHT22;9930;49.240;8.548;2023-09-30T00:13:51;21.00;68.80
19567;DHT22;9930;49.240;8.548;2023-09-30T00:16:22;20.90;68.80
19567;DHT22;9930;49.240;8.548;2023-09-30T00:18:51;20.90;68.80
19567;DHT22;9930;49.240;8.548;2023-09-30T00:21:23;20.90;68.90
19567;DHT22;9930;49.240;8.548;2023-09-30T00:23:55;20.90;68.90
19567;DHT22;9930;49.240;8.548;2023-09-30T00:26:29;20.90;69.10
19567;DHT22;9930;49.240;8.548;2023-09-30T00:29:13;20.90;69.10
19567;DHT22;9930;49.240;8.548;2023-09-30T00:31:46;20.90;69.10
19567;DHT22;9930;49.240;8.548;2023-09-30T00:34:17;20.80;69.10
19567;DHT22;9930;49.240;8.548;2023-09-30T00:36:45;20.80;69.10
19567;DHT22;9930;49.240;8.548;2023-09-30T00:39:19;20.80;69.20
19567;DHT22;9930;49.240;8.548;2023-09-30T00:41:48;20.70;69.30
19567;DHT22;9930;49.240;8.548;2023-09-30T00:44:21;20.70;69.30
19567;DHT22;9930;49.240;8.548;2023-09-30T00:46:48;20.70;69.50
19567;DHT22;9930;49.240;8.548;2023-09-30T00:49:17;20.60;69.40
19567;DHT22;9930;49.240;8.548;2023-09-30T00:51:46;20.60;70.30
19567;DHT22;9930;49.240;8.548;2023-09-30T00:54:14;20.60;69.50
19567;DHT22;9930;49.240;8.548;2023-09-30T00:56:45;20.60;69.50
19567;DHT22;9930;49.240;8.548;2023-09-30T00:59:16;20.50;70.50
19567;DHT22;9930;49.240;8.548;2023-09-30T01:01:45;20.50;69.70
19567;DHT22;9930;49.240;8.548;2023-09-30T01:04:15;20.50;69.80
19567;DHT22;9930;49.240;8.548;2023-09-30T01:06:54;20.50;69.90
19567;DHT22;9930;49.240;8.548;2023-09-30T01:09:42;20.40;69.80
19567;DHT22;9930;49.240;8.548;2023-09-30T01:12:15;20.40;69.80
19567;DHT22;9930;49.240;8.548;2023-09-30T01:14:45;20.40;69.90
19567;DHT22;9930;49.240;8.548;2023-09-30T01:17:13;20.40;69.90
19567;DHT22;9930;49.240;8.548;2023-09-30T01:19:42;20.30;70.00
19567;DHT22;9930;49.240;8.548;2023-09-30T01:22:15;20.20;70.10
19567;DHT22;9930;49.240;8.548;2023-09-30T01:24:43;20.20;70.10
19567;DHT22;9930;49.240;8.548;2023-09-30T01:27:13;20.10;70.10
19567;DHT22;9930;49.240;8.548;2023-09-30T01:29:49;20.20;70.10
19567;DHT22;9930;49.240;8.548;2023-09-30T01:32:19;20.10;70.30
19567;DHT22;9930;49.240;8.548;2023-09-30T01:34:48;20.00;70.10
19567;DHT22;9930;49.240;8.548;2023-09-30T01:37:18;20.00;70.30
19567;DHT22;9930;49.240;8.548;2023-09-30T01:39:48;19.90;70.60
19567;DHT22;9930;49.240;8.548;2023-09-30T01:42:20;19.80;70.60
19567;DHT22;9930;49.240;8.548;2023-09-30T01:44:48;19.80;70.90
19567;DHT22;9930;49.240;8.548;2023-09-30T01:47:16;19.80;70.90
19567;DHT22;9930;49.240;8.548;2023-09-30T01:49:44;19.80;71.00
19567;DHT22;9930;49.240;8.548;2023-09-30T01:52:16;19.70;71.10
19567;DHT22;9930;49.240;8.548;2023-09-30T01:54:43;19.70;71.30
19567;DHT22;9930;49.240;8.548;2023-09-30T01:57:12;19.70;71.50
19567;DHT22;9930;49.240;8.548;2023-09-30T01:59:41;19.70;71.60
19567;DHT22;9930;49.240;8.548;2023-09-30T02:02:19;19.60;71.60
19567;DHT22;9930;49.240;8.548;2023-09-30T02:04:48;19.60;71.70
19567;DHT22;9930;49.240;8.548;2023-09-30T02:07:23;19.60;71.70
19567;DHT22;9930;49.240;8.548;2023-09-30T02:09:52;19.60;71.80
19567;DHT22;9930;49.240;8.548;2023-09-30T02:12:23;19.60;71.70
19567;DHT22;9930;49.240;8.548;2023-09-30T02:14:54;19.60;71.80
19567;DHT22;9930;49.240;8.548;2023-09-30T02:17:33;19.50;72.60
19567;DHT22;9930;49.240;8.548;2023-09-30T02:22:41;19.60;72.00
19567;DHT22;9930;49.240;8.548;2023-09-30T02:25:40;19.60;72.00
19567;DHT22;9930;49.240;8.548;2023-09-30T02:31:18;19.50;72.30
19567;DHT22;9930;49.240;8.548;2023-09-30T02:34:29;19.50;72.70
19567;DHT22;9930;49.240;8.548;2023-09-30T02:37:42;19.50;72.80
19567;DHT22;9930;49.240;8.548;2023-09-30T02:48:57;19.60;72.30
19567;DHT22;9930;49.240;8.548;2023-09-30T02:51:51;19.60;72.40
19567;DHT22;9930;49.240;8.548;2023-09-30T02:55:45;19.60;72.50
19567;DHT22;9930;49.240;8.548;2023-09-30T02:58:43;19.50;73.10
19567;DHT22;9930;49.240;8.548;2023-09-30T03:01:27;19.50;72.50
19567;DHT22;9930;49.240;8.548;2023-09-30T03:07:21;19.50;72.70
19567;DHT22;9930;49.240;8.548;2023-09-30T03:10:11;19.50;72.70
19567;DHT22;9930;49.240;8.548;2023-09-30T03:12:56;19.50;72.70
19567;DHT22;9930;49.240;8.548;2023-09-30T03:15:49;19.50;72.70
19567;DHT22;9930;49.240;8.548;2023-09-30T03:18:20;19.50;72.60
19567;DHT22;9930;49.240;8.548;2023-09-30T03:21:19;19.50;72.50
19567;DHT22;9930;49.240;8.548;2023-09-30T03:24:18;19.50;72.60
19567;DHT22;9930;49.240;8.548;2023-09-30T03:27:47;19.50;73.00
19567;DHT22;9930;49.240;8.548;2023-09-30T03:30:48;19.50;72.70
19567;DHT22;9930;49.240;8.548;2023-09-30T03:33:40;19.50;72.70
19567;DHT22;9930;49.240;8.548;2023-09-30T03:36:22;19.50;73.10
19567;DHT22;9930;49.240;8.548;2023-09-30T03:39:03;19.40;72.70
19567;DHT22;9930;49.240;8.548;2023-09-30T03:41:45;19.40;72.80
19567;DHT22;9930;49.240;8.548;2023-09-30T03:44:28;19.40;72.90
19567;DHT22;9930;49.240;8.548;2023-09-30T03:46:54;19.40;72.90
19567;DHT22;9930;49.240;8.548;2023-09-30T03:49:20;19.40;72.90
19567;DHT22;9930;49.240;8.548;2023-09-30T03:51:50;19.30;72.90
19567;DHT22;9930;49.240;8.548;2023-09-30T03:54:19;19.30;73.20
19567;DHT22;9930;49.240;8.548;2023-09-30T03:56:47;19.30;73.30
19567;DHT22;9930;49.240;8.548;2023-09-30T03:59:22;19.40;73.40
19567;DHT22;9930;49.240;8.548;2023-09-30T04:01:48;19.30;73.30
19567;DHT22;9930;49.240;8.548;2023-09-30T04:04:14;19.30;73.30
19567;DHT22;9930;49.240;8.548;2023-09-30T04:07:03;19.30;73.40
19567;DHT22;9930;49.240;8.548;2023-09-30T04:09:50;19.30;73.50
19567;DHT22;9930;49.240;8.548;2023-09-30T04:12:18;19.20;73.80
19567;DHT22;9930;49.240;8.548;2023-09-30T04:15:14;19.20;73.50
19567;DHT22;9930;49.240;8.548;2023-09-30T04:17:45;19.20;73.50
19567;DHT22;9930;49.240;8.548;2023-09-30T04:20:26;19.10;73.50
19567;DHT22;9930;49.240;8.548;2023-09-30T04:23:13;19.10;73.50
19567;DHT22;9930;49.240;8.548;2023-09-30T04:25:48;19.10;73.80
19567;DHT22;9930;49.240;8.548;2023-09-30T04:31:44;19.10;74.10
19567;DHT22;9930;49.240;8.548;2023-09-30T04:34:25;19.10;74.00
19567;DHT22;9930;49.240;8.548;2023-09-30T04:37:17;19.10;74.30
19567;DHT22;9930;49.240;8.548;2023-09-30T04:40:21;19.10;74.20
19567;DHT22;9930;49.240;8.548;2023-09-30T04:43:13;19.00;74.20
19567;DHT22;9930;49.240;8.548;2023-09-30T04:45:42;19.00;73.90
19567;DHT22;9930;49.240;8.548;2023-09-30T04:48:14;19.00;73.70
19567;DHT22;9930;49.240;8.548;2023-09-30T05:06:12;18.80;73.70
19567;DHT22;9930;49.240;8.548;2023-09-30T05:08:38;18.70;73.70
19567;DHT22;9930;49.240;8.548;2023-09-30T05:11:06;18.70;73.80
19567;DHT22;9930;49.240;8.548;2023-09-30T05:13:36;18.70;74.00
19567;DHT22;9930;49.240;8.548;2023-09-30T05:16:10;18.60;74.00
19567;DHT22;9930;49.240;8.548;2023-09-30T05:18:45;18.60;74.30
19567;DHT22;9930;49.240;8.548;2023-09-30T05:21:13;18.50;74.00
19567;DHT22;9930;49.240;8.548;2023-09-30T05:23:39;18.50;74.10
19567;DHT22;9930;49.240;8.548;2023-09-30T05:26:08;18.50;74.10
19567;DHT22;9930;49.240;8.548;2023-09-30T05:28:36;18.40;74.10
19567;DHT22;9930;49.240;8.548;2023-09-30T05:31:07;18.40;74.20
19567;DHT22;9930;49.240;8.548;2023-09-30T05:33:36;18.40;74.30
19567;DHT22;9930;49.240;8.548;2023-09-30T05:36:03;18.30;74.30
19567;DHT22;9930;49.240;8.548;2023-09-30T05:38:39;18.30;74.40
19567;DHT22;9930;49.240;8.548;2023-09-30T05:41:11;18.30;74.50
19567;DHT22;9930;49.240;8.548;2023-09-30T05:43:41;18.20;74.80
19567;DHT22;9930;49.240;8.548;2023-09-30T05:46:14;18.30;74.80
19567;DHT22;9930;49.240;8.548;2023-09-30T05:48:42;18.20;74.80
19567;DHT22;9930;49.240;8.548;2023-09-30T05:51:10;18.20;74.90
19567;DHT22;9930;49.240;8.548;2023-09-30T05:53:42;18.20;74.90
19567;DHT22;9930;49.240;8.548;2023-09-30T05:56:11;18.20;75.00
19567;DHT22;9930;49.240;8.548;2023-09-30T05:58:41;18.20;75.00
19567;DHT22;9930;49.240;8.548;2023-09-30T06:01:10;18.20;75.00
19567;DHT22;9930;49.240;8.548;2023-09-30T06:03:43;18.20;75.00
19567;DHT22;9930;49.240;8.548;2023-09-30T06:06:32;18.20;75.10
19567;DHT22;9930;49.240;8.548;2023-09-30T06:09:13;18.20;75.30
19567;DHT22;9930;49.240;8.548;2023-09-30T06:12:10;18.10;75.10
19567;DHT22;9930;49.240;8.548;2023-09-30T06:14:51;18.20;75.20
19567;DHT22;9930;49.240;8.548;2023-09-30T06:17:51;18.20;75.10
19567;DHT22;9930;49.240;8.548;2023-09-30T06:20:21;18.20;75.40
19567;DHT22;9930;49.240;8.548;2023-09-30T06:22:50;18.20;75.30
19567;DHT22;9930;49.240;8.548;2023-09-30T06:25:28;18.30;75.40
19567;DHT22;9930;49.240;8.548;2023-09-30T06:28:08;18.20;75.30
19567;DHT22;9930;49.240;8.548;2023-09-30T06:30:51;18.30;75.50
19567;DHT22;9930;49.240;8.548;2023-09-30T06:33:27;18.30;75.60
19567;DHT22;9930;49.240;8.548;2023-09-30T06:36:15;18.40;75.70
19567;DHT22;9930;49.240;8.548;2023-09-30T06:39:06;18.40;75.70
19567;DHT22;9930;49.240;8.548;2023-09-30T06:41:36;18.40;75.80
19567;DHT22;9930;49.240;8.548;2023-09-30T06:44:08;18.40;75.60
19567;DHT22;9930;49.240;8.548;2023-09-30T06:46:42;18.50;75.80
19567;DHT22;9930;49.240;8.548;2023-09-30T06:49:18;18.50;75.90
19567;DHT22;9930;49.240;8.548;2023-09-30T06:51:46;18.50;75.90
19567;DHT22;9930;49.240;8.548;2023-09-30T06:54:15;18.60;75.90
19567;DHT22;9930;49.240;8.548;2023-09-30T06:56:52;18.60;75.90
19567;DHT22;9930;49.240;8.548;2023-09-30T06:59:36;18.70;76.10
19567;DHT22;9930;49.240;8.548;2023-09-30T07:02:11;18.80;76.20
19567;DHT22;9930;49.240;8.548;2023-09-30T07:05:08;18.90;76.20
19567;DHT22;9930;49.240;8.548;2023-09-30T07:08:15;18.90;76.40
19567;DHT22;9930;49.240;8.548;2023-09-30T07:10:50;19.00;76.20
19567;DHT22;9930;49.240;8.548;2023-09-30T07:13:29;19.10;76.30
19567;DHT22;9930;49.240;8.548;2023-09-30T08:11:14;20.30;73.80
19567;DHT22;9930;49.240;8.548;2023-09-30T08:17:46;20.50;73.80
19567;DHT22;9930;49.240;8.548;2023-09-30T10:04:57;22.60;66.20
19567;DHT22;9930;49.240;8.548;2023-09-30T10:07:50;22.60;67.30
19567;DHT22;9930;49.240;8.548;2023-09-30T10:10:22;22.50;66.80
19567;DHT22;9930;49.240;8.548;2023-09-30T10:16:48;22.70;66.60
19567;DHT22;9930;49.240;8.548;2023-09-30T10:22:29;22.90;66.50
19567;DHT22;9930;49.240;8.548;2023-09-30T10:25:44;23.00;66.80
19567;DHT22;9930;49.240;8.548;2023-09-30T10:28:48;23.00;65.70
19567;DHT22;9930;49.240;8.548;2023-09-30T10:32:00;23.10;65.80
19567;DHT22;9930;49.240;8.548;2023-09-30T10:56:20;23.90;63.30
19567;DHT22;9930;49.240;8.548;2023-09-30T11:45:17;24.10;60.40
19567;DHT22;9930;49.240;8.548;2023-09-30T11:57:40;24.30;60.80
19567;DHT22;9930;49.240;8.548;2023-09-30T12:01:11;24.20;59.70
19567;DHT22;9930;49.240;8.548;2023-09-30T12:03:49;24.30;60.50
19567;DHT22;9930;49.240;8.548;2023-09-30T12:06:40;24.40;60.70
19567;DHT22;9930;49.240;8.548;2023-09-30T12:09:08;24.40;60.20
19567;DHT22;9930;49.240;8.548;2023-09-30T12:12:00;24.50;60.10
19567;DHT22;9930;49.240;8.548;2023-09-30T12:14:47;24.60;59.70
19567;DHT22;9930;49.240;8.548;2023-09-30T12:17:19;24.60;59.40
19567;DHT22;9930;49.240;8.548;2023-09-30T12:19:56;24.60;59.30
19567;DHT22;9930;49.240;8.548;2023-09-30T12:23:11;24.70;58.70
19567;DHT22;9930;49.240;8.548;2023-09-30T12:25:53;24.60;57.70
19567;DHT22;9930;49.240;8.548;2023-09-30T12:28:21;24.70;57.90
19567;DHT22;9930;49.240;8.548;2023-09-30T12:33:59;24.80;58.20
19567;DHT22;9930;49.240;8.548;2023-09-30T14:10:34;24.40;55.90
19567;DHT22;9930;49.240;8.548;2023-09-30T14:13:20;24.40;55.80
19567;DHT22;9930;49.240;8.548;2023-09-30T14:16:42;24.40;56.30
19567;DHT22;9930;49.240;8.548;2023-09-30T14:19:52;24.40;55.70
19567;DHT22;9930;49.240;8.548;2023-09-30T14:25:56;24.50;55.60
19567;DHT22;9930;49.240;8.548;2023-09-30T14:28:25;24.50;55.70
19567;DHT22;9930;49.240;8.548;2023-09-30T14:31:26;24.50;55.70
19567;DHT22;9930;49.240;8.548;2023-09-30T14:34:10;24.50;55.40
19567;DHT22;9930;49.240;8.548;2023-09-30T14:44:41;24.40;55.20
19567;DHT22;9930;49.240;8.548;2023-09-30T14:47:42;24.40;54.70
19567;DHT22;9930;49.240;8.548;2023-09-30T14:50:40;24.30;54.80
19567;DHT22;9930;49.240;8.548;2023-09-30T14:53:42;24.30;54.70
19567;DHT22;9930;49.240;8.548;2023-09-30T14:56:57;24.30;55.10
19567;DHT22;9930;49.240;8.548;2023-09-30T15:02:36;24.30;55.20
19567;DHT22;9930;49.240;8.548;2023-09-30T15:06:02;24.30;54.90
19567;DHT22;9930;49.240;8.548;2023-09-30T15:08:49;24.20;54.80
19567;DHT22;9930;49.240;8.548;2023-09-30T15:11:17;24.30;55.10
19567;DHT22;9930;49.240;8.548;2023-09-30T15:14:05;24.30;55.00
19567;DHT22;9930;49.240;8.548;2023-09-30T15:20:08;24.30;55.10
19567;DHT22;9930;49.240;8.548;2023-09-30T15:22:43;24.40;55.10
19567;DHT22;9930;49.240;8.548;2023-09-30T15:25:12;24.40;54.60
19567;DHT22;9930;49.240;8.548;2023-09-30T15:27:42;24.40;54.50
19567;DHT22;9930;49.240;8.548;2023-09-30T15:30:11;24.40;54.60
19567;DHT22;9930;49.240;8.548;2023-09-30T15:32:48;24.30;54.50
19567;DHT22;9930;49.240;8.548;2023-09-30T15:35:45;24.30;54.50
19567;DHT22;9930;49.240;8.548;2023-09-30T15:38:21;24.30;54.50
19567;DHT22;9930;49.240;8.548;2023-09-30T15:49:41;24.30;54.70
19567;DHT22;9930;49.240;8.548;2023-09-30T15:56:01;24.20;54.70
19567;DHT22;9930;49.240;8.548;2023-09-30T15:59:30;24.10;54.20
19567;DHT22;9930;49.240;8.548;2023-09-30T16:02:51;24.10;54.50
19567;DHT22;9930;49.240;8.548;2023-09-30T16:24:04;23.70;54.40
19567;DHT22;9930;49.240;8.548;2023-09-30T16:26:48;23.70;54.60
19567;DHT22;9930;49.240;8.548;2023-09-30T16:29:35;23.60;54.40
19567;DHT22;9930;49.240;8.548;2023-09-30T16:35:40;23.50;54.30
19567;DHT22;9930;49.240;8.548;2023-09-30T16:39:09;23.50;54.60
19567;DHT22;9930;49.240;8.548;2023-09-30T16:42:21;23.40;54.50
19567;DHT22;9930;49.240;8.548;2023-09-30T16:45:44;23.40;54.70
19567;DHT22;9930;49.240;8.548;2023-09-30T16:51:34;23.30;54.90
19567;DHT22;9930;49.240;8.548;2023-09-30T16:54:02;23.20;54.90
19567;DHT22;9930;49.240;8.548;2023-09-30T16:56:30;23.20;55.00
19567;DHT22;9930;49.240;8.548;2023-09-30T16:58:56;23.10;55.00
19567;DHT22;9930;49.240;8.548;2023-09-30T17:01:25;23.10;55.10
19567;DHT22;9930;49.240;8.548;2023-09-30T17:10:48;22.90;55.30
19567;DHT22;9930;49.240;8.548;2023-09-30T17:17:11;22.80;55.50
19567;DHT22;9930;49.240;8.548;2023-09-30T17:20:43;22.70;55.50
19567;DHT22;9930;49.240;8.548;2023-09-30T17:23:57;22.60;55.60
19567;DHT22;9930;49.240;8.548;2023-09-30T17:39:50;22.20;56.50
19567;DHT22;9930;49.240;8.548;2023-09-30T17:42:32;22.20;56.60
19567;DHT22;9930;49.240;8.548;2023-09-30T17:45:27;22.00;56.70
19567;DHT22;9930;49.240;8.548;2023-09-30T17:48:21;22.00;56.90
19567;DHT22;9930;49.240;8.548;2023-09-30T17:55:07;21.90;57.10
19567;DHT22;9930;49.240;8.548;2023-09-30T17:57:47;21.80;57.30
19567;DHT22;9930;49.240;8.548;2023-09-30T18:07:11;21.60;57.80
19567;DHT22;9930;49.240;8.548;2023-09-30T18:10:20;21.50;57.60
19567;DHT22;9930;49.240;8.548;2023-09-30T18:13:18;21.40;58.00
19567;DHT22;9930;49.240;8.548;2023-09-30T18:15:54;21.40;58.30
19567;DHT22;9930;49.240;8.548;2023-09-30T18:19:00;21.30;58.10
19567;DHT22;9930;49.240;8.548;2023-09-30T18:21:46;21.30;58.20
19567;DHT22;9930;49.240;8.548;2023-09-30T18:26:07;21.20;58.60
19567;DHT22;9930;49.240;8.548;2023-09-30T19:05:13;20.30;59.80
19567;DHT22;9930;49.240;8.548;2023-09-30T19:07:42;20.30;59.90
19567;DHT22;9930;49.240;8.548;2023-09-30T19:10:09;20.20;59.80
19567;DHT22;9930;49.240;8.548;2023-09-30T19:12:41;20.20;59.80
19567;DHT22;9930;49.240;8.548;2023-09-30T19:15:36;20.10;60.20
19567;DHT22;9930;49.240;8.548;2023-09-30T19:18:14;20.10;60.70
19567;DHT22;9930;49.240;8.548;2023-09-30T19:20:54;20.10;61.10
19567;DHT22;9930;49.240;8.548;2023-09-30T19:23:21;20.00;60.90
19567;DHT22;9930;49.240;8.548;2023-09-30T19:25:54;20.00;61.00
19567;DHT22;9930;49.240;8.548;2023-09-30T19:28:27;20.00;61.20
19567;DHT22;9930;49.240;8.548;2023-09-30T19:31:13;19.90;61.20
19567;DHT22;9930;49.240;8.548;2023-09-30T20:25:41;18.90;63.90
19567;DHT22;9930;49.240;8.548;2023-09-30T20:28:42;18.80;64.20
19567;DHT22;9930;49.240;8.548;2023-09-30T20:32:03;18.80;63.70
19567;DHT22;9930;49.240;8.548;2023-09-30T20:35:30;18.70;64.50
19567;DHT22;9930;49.240;8.548;2023-09-30T20:44:23;18.60;64.00
19567;DHT22;9930;49.240;8.548;2023-09-30T20:50:37;18.60;64.10
19567;DHT22;9930;49.240;8.548;2023-09-30T20:54:14;18.50;64.20
19567;DHT22;9930;49.240;8.548;2023-09-30T20:56:57;18.50;64.60
19567;DHT22;9930;49.240;8.548;2023-09-30T21:00:23;18.50;64.50
19567;DHT22;9930;49.240;8.548;2023-09-30T21:03:55;18.40;64.80
19567;DHT22;9930;49.240;8.548;2023-09-30T21:07:05;18.40;64.90
19567;DHT22;9930;49.240;8.548;2023-09-30T21:17:16;18.30;65.20
19567;DHT22;9930;49.240;8.548;2023-09-30T21:20:15;18.20;64.70
19567;DHT22;9930;49.240;8.548;2023-09-30T23:14:40;16.80;67.90
19567;DHT22;9930;49.240;8.548;2023-09-30T23:17:15;16.70;67.50
19567;DHT22;9930;49.240;8.548;2023-09-30T23:19:47;16.70;68.00
19567;DHT22;9930;49.240;8.548;2023-09-30T23:22:16;16.70;68.00
19567;DHT22;9930;49.240;8.548;2023-09-30T23:24:45;16.70;68.10
19567;DHT22;9930;49.240;8.548;2023-09-30T23:27:13;16.70;68.00
19567;DHT22;9930;49.240;8.548;2023-09-30T23:29:40;16.70;68.20
19567;DHT22;9930;49.240;8.548;2023-09-30T23:32:09;16.70;68.20
19567;DHT22;9930;49.240;8.548;2023-09-30T23:34:39;16.70;68.30
19567;DHT22;9930;49.240;8.548;2023-09-30T23:37:07;16.70;68.30
19567;DHT22;9930;49.240;8.548;2023-09-30T23:39:38;16.60;68.30
19567;DHT22;9930;49.240;8.548;2023-09-30T23:42:10;16.60;68.30
19567;DHT22;9930;49.240;8.548;2023-09-30T23:44:52;16.60;68.50
19567;DHT22;9930;49.240;8.548;2023-09-30T23:47:18;16.60;68.80
19567;DHT22;9930;49.240;8.548;2023-09-30T23:49:44;16.60;68.40
19567;DHT22;9930;49.240;8.548;2023-09-30T23:52:11;16.60;68.60
19567;DHT22;9930;49.240;8.548;2023-09-30T23:54:43;16.50;68.70
19567;DHT22;9930;49.240;8.548;2023-09-30T23:57:10;16.50;68.90
19567;DHT22;9930;49.240;8.548;2023-09-30T23:59:36;16.50;68.90
